sensor_id;sensor_type;location;lat;lon;timestamp;P1;durP1;ratioP1;P2;durP2;ratioP2
26474;SDS011;14161;52.270;10.334;2024-01-15T00:01:07;18.02;;;12.73;;
26474;SDS011;14161;52.270;10.334;2024-01-15T00:03:33;19.45;;;12.13;;
26474;SDS011;14161;52.270;10.334;2024-01-15T00:05:58;19.38;;;13.27;;
26474;SDS011;14161;52.270;10.334;2024-01-15T00:08:24;20.20;;;13.70;;
26474;SDS011;14161;52.270;10.334;2024-01-15T00:10:49;20.50;;;13.13;;
26474;SDS011;14161;52.270;10.334;2024-01-15T00:13:15;19.48;;;13.00;;
26474;SDS011;14161;52.270;10.334;2024-01-15T00:15:40;19.27;;;13.20;;
26474;SDS011;14161;52.270;10.334;2024-01-15T00:18:06;21.15;;;13.82;;
26474;SDS011;14161;52.270;10.334;2024-01-15T00:20:31;23.05;;;13.00;;
26474;SDS011;14161;52.270;10.334;2024-01-15T00:22:57;24.98;;;14.60;;
26474;SDS011;14161;52.270;10.334;2024-01-15T00:25:22;23.70;;;14.85;;
26474;SDS011;14161;52.270;10.334;2024-01-15T00:27:48;21.88;;;12.48;;
26474;SDS011;14161;52.270;10.334;2024-01-15T00:30:14;20.40;;;12.15;;
26474;SDS011;14161;52.270;10.334;2024-01-15T00:32:40;19.90;;;12.73;;
26474;SDS011;14161;52.270;10.334;2024-01-15T00:35:05;18.40;;;12.13;;
26474;SDS011;14161;52.270;10.334;2024-01-15T00:37:31;17.75;;;12.05;;
26474;SDS011;14161;52.270;10.334;2024-01-15T00:39:56;21.08;;;12.48;;
26474;SDS011;14161;52.270;10.334;2024-01-15T00:42:21;17.30;;;10.40;;
26474;SDS011;14161;52.270;10.334;2024-01-15T00:44:47;17.77;;;11.70;;
26474;SDS011;14161;52.270;10.334;2024-01-15T00:47:12;16.77;;;10.10;;
26474;SDS011;14161;52.270;10.334;2024-01-15T00:49:38;14.00;;;9.75;;
26474;SDS011;14161;52.270;10.334;2024-01-15T00:52:03;13.27;;;8.90;;
26474;SDS011;14161;52.270;10.334;2024-01-15T00:54:29;16.42;;;10.80;;
26474;SDS011;14161;52.270;10.334;2024-01-15T00:56:54;15.27;;;9.45;;
26474;SDS011;14161;52.270;10.334;2024-01-15T00:59:20;16.15;;;8.43;;
26474;SDS011;14161;52.270;10.334;2024-01-15T01:01:46;13.40;;;8.68;;
26474;SDS011;14161;52.270;10.334;2024-01-15T01:04:11;11.95;;;7.90;;
26474;SDS011;14161;52.270;10.334;2024-01-15T01:06:37;11.45;;;6.63;;
26474;SDS011;14161;52.270;10.334;2024-01-15T01:09:03;10.05;;;6.05;;
26474;SDS011;14161;52.270;10.334;2024-01-15T01:11:28;11.57;;;6.13;;
26474;SDS011;14161;52.270;10.334;2024-01-15T01:13:54;11.98;;;7.10;;
26474;SDS011;14161;52.270;10.334;2024-01-15T01:16:21;10.77;;;7.18;;
26474;SDS011;14161;52.270;10.334;2024-01-15T01:18:47;9.57;;;6.43;;
26474;SDS011;14161;52.270;10.334;2024-01-15T01:21:12;9.82;;;6.25;;
26474;SDS011;14161;52.270;10.334;2024-01-15T01:23:37;9.55;;;6.53;;
26474;SDS011;14161;52.270;10.334;2024-01-15T01:26:03;8.57;;;5.60;;
26474;SDS011;14161;52.270;10.334;2024-01-15T01:28:28;10.80;;;5.38;;
26474;SDS011;14161;52.270;10.334;2024-01-15T01:30:54;9.90;;;5.47;;
26474;SDS011;14161;52.270;10.334;2024-01-15T01:33:19;9.60;;;5.35;;
26474;SDS011;14161;52.270;10.334;2024-01-15T01:35:45;8.55;;;5.57;;
26474;SDS011;14161;52.270;10.334;2024-01-15T01:38:11;11.27;;;4.53;;
26474;SDS011;14161;52.270;10.334;2024-01-15T01:40:37;9.02;;;5.13;;
26474;SDS011;14161;52.270;10.334;2024-01-15T01:43:03;10.05;;;5.57;;
26474;SDS011;14161;52.270;10.334;2024-01-15T01:45:29;14.05;;;5.68;;
26474;SDS011;14161;52.270;10.334;2024-01-15T01:47:55;8.05;;;5.55;;
26474;SDS011;14161;52.270;10.334;2024-01-15T01:50:20;8.98;;;5.85;;
26474;SDS011;14161;52.270;10.334;2024-01-15T01:52:46;8.27;;;5.43;;
26474;SDS011;14161;52.270;10.334;2024-01-15T01:55:12;8.02;;;5.55;;
26474;SDS011;14161;52.270;10.334;2024-01-15T01:57:37;10.25;;;5.45;;
26474;SDS011;14161;52.270;10.334;2024-01-15T02:00:03;10.85;;;4.95;;
26474;SDS011;14161;52.270;10.334;2024-01-15T02:02:36;7.95;;;4.90;;
26474;SDS011;14161;52.270;10.334;2024-01-15T02:05:03;10.30;;;5.03;;
26474;SDS011;14161;52.270;10.334;2024-01-15T02:07:29;6.40;;;4.00;;
26474;SDS011;14161;52.270;10.334;2024-01-15T02:09:54;9.85;;;4.47;;
26474;SDS011;14161;52.270;10.334;2024-01-15T02:12:20;7.68;;;4.03;;
26474;SDS011;14161;52.270;10.334;2024-01-15T02:14:45;10.35;;;3.72;;
26474;SDS011;14161;52.270;10.334;2024-01-15T02:17:11;9.25;;;3.80;;
26474;SDS011;14161;52.270;10.334;2024-01-15T02:19:36;9.70;;;3.42;;
26474;SDS011;14161;52.270;10.334;2024-01-15T02:22:02;8.55;;;3.72;;
26474;SDS011;14161;52.270;10.334;2024-01-15T02:24:27;11.25;;;2.92;;
26474;SDS011;14161;52.270;10.334;2024-01-15T02:26:53;9.93;;;2.90;;
26474;SDS011;14161;52.270;10.334;2024-01-15T02:29:18;6.95;;;2.80;;
26474;SDS011;14161;52.270;10.334;2024-01-15T02:31:44;11.05;;;2.72;;
26474;SDS011;14161;52.270;10.334;2024-01-15T02:34:09;9.20;;;3.08;;
26474;SDS011;14161;52.270;10.334;2024-01-15T02:36:35;10.23;;;3.25;;
26474;SDS011;14161;52.270;10.334;2024-01-15T02:39:00;12.55;;;4.20;;
26474;SDS011;14161;52.270;10.334;2024-01-15T02:41:26;8.40;;;3.53;;
26474;SDS011;14161;52.270;10.334;2024-01-15T02:43:51;7.75;;;3.10;;
26474;SDS011;14161;52.270;10.334;2024-01-15T02:46:16;10.50;;;3.15;;
26474;SDS011;14161;52.270;10.334;2024-01-15T02:48:42;10.32;;;3.28;;
26474;SDS011;14161;52.270;10.334;2024-01-15T02:51:07;8.23;;;3.05;;
26474;SDS011;14161;52.270;10.334;2024-01-15T02:53:33;9.43;;;3.10;;
26474;SDS011;14161;52.270;10.334;2024-01-15T02:55:58;10.18;;;3.38;;
26474;SDS011;14161;52.270;10.334;2024-01-15T02:58:24;8.55;;;3.28;;
26474;SDS011;14161;52.270;10.334;2024-01-15T03:00:49;6.82;;;2.70;;
26474;SDS011;14161;52.270;10.334;2024-01-15T03:03:15;12.77;;;3.45;;
26474;SDS011;14161;52.270;10.334;2024-01-15T03:05:40;8.95;;;3.03;;
26474;SDS011;14161;52.270;10.334;2024-01-15T03:08:06;14.23;;;3.25;;
26474;SDS011;14161;52.270;10.334;2024-01-15T03:10:31;9.32;;;3.13;;
26474;SDS011;14161;52.270;10.334;2024-01-15T03:12:57;8.45;;;2.22;;
26474;SDS011;14161;52.270;10.334;2024-01-15T03:15:22;5.55;;;2.10;;
26474;SDS011;14161;52.270;10.334;2024-01-15T03:17:48;8.75;;;3.13;;
26474;SDS011;14161;52.270;10.334;2024-01-15T03:20:13;11.75;;;3.20;;
26474;SDS011;14161;52.270;10.334;2024-01-15T03:22:38;13.30;;;2.92;;
26474;SDS011;14161;52.270;10.334;2024-01-15T03:25:04;11.05;;;2.85;;
26474;SDS011;14161;52.270;10.334;2024-01-15T03:27:30;8.80;;;2.60;;
26474;SDS011;14161;52.270;10.334;2024-01-15T03:29:55;8.88;;;2.30;;
26474;SDS011;14161;52.270;10.334;2024-01-15T03:32:21;10.50;;;2.83;;
26474;SDS011;14161;52.270;10.334;2024-01-15T03:34:46;9.65;;;2.80;;
26474;SDS011;14161;52.270;10.334;2024-01-15T03:37:13;11.85;;;3.10;;
26474;SDS011;14161;52.270;10.334;2024-01-15T03:39:39;7.10;;;2.38;;
26474;SDS011;14161;52.270;10.334;2024-01-15T03:42:04;8.13;;;2.08;;
26474;SDS011;14161;52.270;10.334;2024-01-15T03:44:29;8.35;;;2.55;;
26474;SDS011;14161;52.270;10.334;2024-01-15T03:46:55;9.55;;;2.22;;
26474;SDS011;14161;52.270;10.334;2024-01-15T03:49:20;9.30;;;1.80;;
26474;SDS011;14161;52.270;10.334;2024-01-15T03:51:46;10.52;;;2.33;;
26474;SDS011;14161;52.270;10.334;2024-01-15T03:54:11;9.27;;;2.67;;
26474;SDS011;14161;52.270;10.334;2024-01-15T03:56:37;13.18;;;3.10;;
26474;SDS011;14161;52.270;10.334;2024-01-15T03:59:02;9.98;;;2.78;;
26474;SDS011;14161;52.270;10.334;2024-01-15T04:01:28;5.75;;;2.00;;
26474;SDS011;14161;52.270;10.334;2024-01-15T04:03:53;10.98;;;2.55;;
26474;SDS011;14161;52.270;10.334;2024-01-15T04:06:19;6.22;;;2.20;;
26474;SDS011;14161;52.270;10.334;2024-01-15T04:08:44;12.82;;;2.65;;
26474;SDS011;14161;52.270;10.334;2024-01-15T04:11:10;8.00;;;2.15;;
26474;SDS011;14161;52.270;10.334;2024-01-15T04:13:35;11.75;;;2.70;;
26474;SDS011;14161;52.270;10.334;2024-01-15T04:16:01;9.77;;;2.55;;
26474;SDS011;14161;52.270;10.334;2024-01-15T04:18:26;8.27;;;2.50;;
26474;SDS011;14161;52.270;10.334;2024-01-15T04:20:52;9.68;;;2.45;;
26474;SDS011;14161;52.270;10.334;2024-01-15T04:23:17;10.52;;;2.38;;
26474;SDS011;14161;52.270;10.334;2024-01-15T04:25:43;7.32;;;1.98;;
26474;SDS011;14161;52.270;10.334;2024-01-15T04:28:09;9.48;;;2.42;;
26474;SDS011;14161;52.270;10.334;2024-01-15T04:30:34;5.57;;;1.85;;
26474;SDS011;14161;52.270;10.334;2024-01-15T04:33:03;8.40;;;2.60;;
26474;SDS011;14161;52.270;10.334;2024-01-15T04:35:32;6.82;;;2.50;;
26474;SDS011;14161;52.270;10.334;2024-01-15T04:37:59;13.95;;;2.20;;
26474;SDS011;14161;52.270;10.334;2024-01-15T04:40:33;10.18;;;2.10;;
26474;SDS011;14161;52.270;10.334;2024-01-15T04:42:59;8.02;;;2.30;;
26474;SDS011;14161;52.270;10.334;2024-01-15T04:45:24;7.45;;;2.00;;
26474;SDS011;14161;52.270;10.334;2024-01-15T04:47:54;11.77;;;2.30;;
26474;SDS011;14161;52.270;10.334;2024-01-15T04:50:21;13.05;;;3.42;;
26474;SDS011;14161;52.270;10.334;2024-01-15T04:52:46;12.73;;;2.95;;
26474;SDS011;14161;52.270;10.334;2024-01-15T04:55:12;5.13;;;2.10;;
26474;SDS011;14161;52.270;10.334;2024-01-15T04:57:37;10.23;;;2.13;;
26474;SDS011;14161;52.270;10.334;2024-01-15T05:00:03;11.48;;;2.10;;
26474;SDS011;14161;52.270;10.334;2024-01-15T05:02:30;10.15;;;2.20;;
26474;SDS011;14161;52.270;10.334;2024-01-15T05:04:55;10.43;;;1.98;;
26474;SDS011;14161;52.270;10.334;2024-01-15T05:07:21;8.10;;;2.22;;
26474;SDS011;14161;52.270;10.334;2024-01-15T05:09:46;11.38;;;2.08;;
26474;SDS011;14161;52.270;10.334;2024-01-15T05:12:12;12.65;;;1.90;;
26474;SDS011;14161;52.270;10.334;2024-01-15T05:14:38;5.57;;;1.73;;
26474;SDS011;14161;52.270;10.334;2024-01-15T05:17:04;6.85;;;2.00;;
26474;SDS011;14161;52.270;10.334;2024-01-15T05:19:29;7.88;;;2.38;;
26474;SDS011;14161;52.270;10.334;2024-01-15T05:21:54;4.68;;;1.80;;
26474;SDS011;14161;52.270;10.334;2024-01-15T05:24:20;8.27;;;1.83;;
26474;SDS011;14161;52.270;10.334;2024-01-15T05:26:46;6.68;;;1.95;;
26474;SDS011;14161;52.270;10.334;2024-01-15T05:29:12;8.10;;;2.00;;
26474;SDS011;14161;52.270;10.334;2024-01-15T05:31:37;6.53;;;1.80;;
26474;SDS011;14161;52.270;10.334;2024-01-15T05:34:02;9.85;;;2.10;;
26474;SDS011;14161;52.270;10.334;2024-01-15T05:36:28;5.40;;;2.20;;
26474;SDS011;14161;52.270;10.334;2024-01-15T05:38:53;11.82;;;2.08;;
26474;SDS011;14161;52.270;10.334;2024-01-15T05:41:19;5.63;;;1.65;;
26474;SDS011;14161;52.270;10.334;2024-01-15T05:43:44;8.75;;;2.20;;
26474;SDS011;14161;52.270;10.334;2024-01-15T05:46:10;9.95;;;2.10;;
26474;SDS011;14161;52.270;10.334;2024-01-15T05:48:35;10.48;;;2.22;;
26474;SDS011;14161;52.270;10.334;2024-01-15T05:51:01;7.07;;;2.22;;
26474;SDS011;14161;52.270;10.334;2024-01-15T05:53:27;11.38;;;3.22;;
26474;SDS011;14161;52.270;10.334;2024-01-15T05:55:57;10.60;;;2.67;;
26474;SDS011;14161;52.270;10.334;2024-01-15T05:58:23;11.13;;;2.35;;
26474;SDS011;14161;52.270;10.334;2024-01-15T06:00:48;8.20;;;2.22;;
26474;SDS011;14161;52.270;10.334;2024-01-15T06:03:15;5.93;;;2.00;;
26474;SDS011;14161;52.270;10.334;2024-01-15T06:05:40;8.10;;;2.65;;
26474;SDS011;14161;52.270;10.334;2024-01-15T06:08:06;7.78;;;2.60;;
26474;SDS011;14161;52.270;10.334;2024-01-15T06:10:31;10.45;;;2.60;;
26474;SDS011;14161;52.270;10.334;2024-01-15T06:12:56;7.40;;;2.70;;
26474;SDS011;14161;52.270;10.334;2024-01-15T06:15:22;9.18;;;2.72;;
26474;SDS011;14161;52.270;10.334;2024-01-15T06:17:48;10.63;;;2.90;;
26474;SDS011;14161;52.270;10.334;2024-01-15T06:20:13;9.27;;;2.47;;
26474;SDS011;14161;52.270;10.334;2024-01-15T06:22:39;6.10;;;2.22;;
26474;SDS011;14161;52.270;10.334;2024-01-15T06:25:06;8.32;;;2.50;;
26474;SDS011;14161;52.270;10.334;2024-01-15T06:27:32;10.82;;;3.17;;
26474;SDS011;14161;52.270;10.334;2024-01-15T06:29:58;7.68;;;2.35;;
26474;SDS011;14161;52.270;10.334;2024-01-15T06:32:23;8.75;;;2.75;;
26474;SDS011;14161;52.270;10.334;2024-01-15T06:34:49;8.27;;;2.83;;
26474;SDS011;14161;52.270;10.334;2024-01-15T06:37:14;5.45;;;2.40;;
26474;SDS011;14161;52.270;10.334;2024-01-15T06:39:40;8.30;;;2.95;;
26474;SDS011;14161;52.270;10.334;2024-01-15T06:42:05;5.88;;;2.65;;
26474;SDS011;14161;52.270;10.334;2024-01-15T06:44:31;7.20;;;2.42;;
26474;SDS011;14161;52.270;10.334;2024-01-15T06:46:56;9.45;;;2.75;;
26474;SDS011;14161;52.270;10.334;2024-01-15T06:49:27;9.40;;;2.80;;
26474;SDS011;14161;52.270;10.334;2024-01-15T06:51:53;7.63;;;2.70;;
26474;SDS011;14161;52.270;10.334;2024-01-15T06:54:18;5.78;;;2.38;;
26474;SDS011;14161;52.270;10.334;2024-01-15T06:56:44;4.68;;;2.30;;
26474;SDS011;14161;52.270;10.334;2024-01-15T06:59:09;8.65;;;2.45;;
26474;SDS011;14161;52.270;10.334;2024-01-15T07:01:34;8.02;;;2.40;;
26474;SDS011;14161;52.270;10.334;2024-01-15T07:04:00;6.50;;;2.67;;
26474;SDS011;14161;52.270;10.334;2024-01-15T07:06:25;6.47;;;2.10;;
26474;SDS011;14161;52.270;10.334;2024-01-15T07:08:51;5.25;;;2.15;;
26474;SDS011;14161;52.270;10.334;2024-01-15T07:11:16;5.03;;;2.55;;
26474;SDS011;14161;52.270;10.334;2024-01-15T07:13:42;8.48;;;2.63;;
26474;SDS011;14161;52.270;10.334;2024-01-15T07:16:07;6.75;;;2.60;;
26474;SDS011;14161;52.270;10.334;2024-01-15T07:18:32;6.90;;;3.17;;
26474;SDS011;14161;52.270;10.334;2024-01-15T07:20:58;6.50;;;2.50;;
26474;SDS011;14161;52.270;10.334;2024-01-15T07:23:24;4.57;;;2.47;;
26474;SDS011;14161;52.270;10.334;2024-01-15T07:25:49;6.70;;;2.80;;
26474;SDS011;14161;52.270;10.334;2024-01-15T07:28:15;5.72;;;2.75;;
26474;SDS011;14161;52.270;10.334;2024-01-15T07:30:40;6.40;;;2.58;;
26474;SDS011;14161;52.270;10.334;2024-01-15T07:33:06;11.75;;;3.20;;
26474;SDS011;14161;52.270;10.334;2024-01-15T07:35:31;8.85;;;2.70;;
26474;SDS011;14161;52.270;10.334;2024-01-15T07:37:57;7.40;;;3.03;;
26474;SDS011;14161;52.270;10.334;2024-01-15T07:40:22;7.00;;;2.70;;
26474;SDS011;14161;52.270;10.334;2024-01-15T07:42:48;7.28;;;2.58;;
26474;SDS011;14161;52.270;10.334;2024-01-15T07:45:13;13.45;;;3.03;;
26474;SDS011;14161;52.270;10.334;2024-01-15T07:47:39;4.53;;;2.50;;
26474;SDS011;14161;52.270;10.334;2024-01-15T07:50:04;5.40;;;2.30;;
26474;SDS011;14161;52.270;10.334;2024-01-15T07:52:30;6.43;;;2.30;;
26474;SDS011;14161;52.270;10.334;2024-01-15T07:54:56;7.50;;;2.70;;
26474;SDS011;14161;52.270;10.334;2024-01-15T07:57:21;8.00;;;2.20;;
26474;SDS011;14161;52.270;10.334;2024-01-15T07:59:48;7.45;;;2.20;;
26474;SDS011;14161;52.270;10.334;2024-01-15T08:02:13;6.47;;;2.20;;
26474;SDS011;14161;52.270;10.334;2024-01-15T08:04:38;5.50;;;2.13;;
26474;SDS011;14161;52.270;10.334;2024-01-15T08:07:04;8.20;;;2.45;;
26474;SDS011;14161;52.270;10.334;2024-01-15T08:09:32;10.98;;;2.47;;
26474;SDS011;14161;52.270;10.334;2024-01-15T08:11:57;4.95;;;2.53;;
26474;SDS011;14161;52.270;10.334;2024-01-15T08:14:23;7.43;;;2.28;;
26474;SDS011;14161;52.270;10.334;2024-01-15T08:16:48;6.90;;;2.58;;
26474;SDS011;14161;52.270;10.334;2024-01-15T08:19:14;9.27;;;3.35;;
26474;SDS011;14161;52.270;10.334;2024-01-15T08:21:39;9.43;;;2.70;;
26474;SDS011;14161;52.270;10.334;2024-01-15T08:24:05;6.85;;;2.63;;
26474;SDS011;14161;52.270;10.334;2024-01-15T08:26:31;6.97;;;3.10;;
26474;SDS011;14161;52.270;10.334;2024-01-15T08:28:57;11.07;;;3.45;;
26474;SDS011;14161;52.270;10.334;2024-01-15T08:31:23;5.55;;;3.33;;
26474;SDS011;14161;52.270;10.334;2024-01-15T08:33:48;6.78;;;2.05;;
26474;SDS011;14161;52.270;10.334;2024-01-15T08:36:13;7.57;;;3.05;;
26474;SDS011;14161;52.270;10.334;2024-01-15T08:38:39;9.75;;;2.70;;
26474;SDS011;14161;52.270;10.334;2024-01-15T08:41:04;8.88;;;2.92;;
26474;SDS011;14161;52.270;10.334;2024-01-15T08:43:30;5.15;;;2.25;;
26474;SDS011;14161;52.270;10.334;2024-01-15T08:45:58;8.95;;;2.78;;
26474;SDS011;14161;52.270;10.334;2024-01-15T08:48:24;8.75;;;2.78;;
26474;SDS011;14161;52.270;10.334;2024-01-15T08:50:52;3.60;;;2.10;;
26474;SDS011;14161;52.270;10.334;2024-01-15T08:53:18;7.00;;;2.05;;
26474;SDS011;14161;52.270;10.334;2024-01-15T08:55:43;8.73;;;2.60;;
26474;SDS011;14161;52.270;10.334;2024-01-15T08:58:09;7.43;;;2.33;;
26474;SDS011;14161;52.270;10.334;2024-01-15T09:00:35;6.82;;;2.30;;
26474;SDS011;14161;52.270;10.334;2024-01-15T09:03:01;8.75;;;2.38;;
26474;SDS011;14161;52.270;10.334;2024-01-15T09:05:29;3.92;;;2.10;;
26474;SDS011;14161;52.270;10.334;2024-01-15T09:07:54;6.05;;;2.22;;
26474;SDS011;14161;52.270;10.334;2024-01-15T09:10:20;4.00;;;2.15;;
26474;SDS011;14161;52.270;10.334;2024-01-15T09:12:45;2.90;;;1.80;;
26474;SDS011;14161;52.270;10.334;2024-01-15T09:15:11;7.80;;;2.10;;
26474;SDS011;14161;52.270;10.334;2024-01-15T09:17:36;6.53;;;1.90;;
26474;SDS011;14161;52.270;10.334;2024-01-15T09:20:02;4.40;;;2.33;;
26474;SDS011;14161;52.270;10.334;2024-01-15T09:22:29;5.68;;;1.70;;
26474;SDS011;14161;52.270;10.334;2024-01-15T09:24:55;9.07;;;1.75;;
26474;SDS011;14161;52.270;10.334;2024-01-15T09:27:20;3.08;;;1.52;;
26474;SDS011;14161;52.270;10.334;2024-01-15T09:29:46;6.13;;;1.52;;
26474;SDS011;14161;52.270;10.334;2024-01-15T09:32:12;4.90;;;1.77;;
26474;SDS011;14161;52.270;10.334;2024-01-15T09:34:38;4.38;;;1.42;;
26474;SDS011;14161;52.270;10.334;2024-01-15T09:37:03;7.82;;;1.65;;
26474;SDS011;14161;52.270;10.334;2024-01-15T09:39:29;6.05;;;1.35;;
26474;SDS011;14161;52.270;10.334;2024-01-15T09:41:55;6.20;;;1.65;;
26474;SDS011;14161;52.270;10.334;2024-01-15T09:44:21;2.85;;;1.48;;
26474;SDS011;14161;52.270;10.334;2024-01-15T09:46:49;4.50;;;1.45;;
26474;SDS011;14161;52.270;10.334;2024-01-15T09:49:18;2.85;;;1.23;;
26474;SDS011;14161;52.270;10.334;2024-01-15T09:51:43;5.90;;;2.05;;
26474;SDS011;14161;52.270;10.334;2024-01-15T09:54:09;6.65;;;1.83;;
26474;SDS011;14161;52.270;10.334;2024-01-15T09:56:35;7.53;;;2.35;;
26474;SDS011;14161;52.270;10.334;2024-01-15T09:59:00;5.68;;;1.80;;
26474;SDS011;14161;52.270;10.334;2024-01-15T10:01:26;4.65;;;1.42;;
26474;SDS011;14161;52.270;10.334;2024-01-15T10:03:51;8.15;;;2.13;;
26474;SDS011;14161;52.270;10.334;2024-01-15T10:06:18;9.00;;;1.92;;
26474;SDS011;14161;52.270;10.334;2024-01-15T10:08:47;7.47;;;2.47;;
26474;SDS011;14161;52.270;10.334;2024-01-15T10:11:13;10.27;;;2.30;;
26474;SDS011;14161;52.270;10.334;2024-01-15T10:13:39;11.10;;;2.10;;
26474;SDS011;14161;52.270;10.334;2024-01-15T10:16:04;6.85;;;2.45;;
26474;SDS011;14161;52.270;10.334;2024-01-15T10:18:30;6.85;;;2.20;;
26474;SDS011;14161;52.270;10.334;2024-01-15T10:20:56;10.30;;;2.30;;
26474;SDS011;14161;52.270;10.334;2024-01-15T10:23:22;6.95;;;2.00;;
26474;SDS011;14161;52.270;10.334;2024-01-15T10:25:48;5.28;;;1.80;;
26474;SDS011;14161;52.270;10.334;2024-01-15T10:28:14;7.25;;;2.30;;
26474;SDS011;14161;52.270;10.334;2024-01-15T10:30:39;10.07;;;2.47;;
26474;SDS011;14161;52.270;10.334;2024-01-15T10:33:05;13.10;;;2.78;;
26474;SDS011;14161;52.270;10.334;2024-01-15T10:35:32;6.22;;;1.90;;
26474;SDS011;14161;52.270;10.334;2024-01-15T10:38:01;9.07;;;2.38;;
26474;SDS011;14161;52.270;10.334;2024-01-15T10:40:27;8.43;;;1.85;;
26474;SDS011;14161;52.270;10.334;2024-01-15T10:42:53;6.22;;;1.80;;
26474;SDS011;14161;52.270;10.334;2024-01-15T10:45:19;7.07;;;1.60;;
26474;SDS011;14161;52.270;10.334;2024-01-15T10:47:44;5.00;;;1.77;;
26474;SDS011;14161;52.270;10.334;2024-01-15T10:50:11;4.47;;;1.30;;
26474;SDS011;14161;52.270;10.334;2024-01-15T10:52:37;2.10;;;0.93;;
26474;SDS011;14161;52.270;10.334;2024-01-15T10:55:05;4.22;;;1.48;;
26474;SDS011;14161;52.270;10.334;2024-01-15T10:57:35;4.28;;;1.10;;
26474;SDS011;14161;52.270;10.334;2024-01-15T11:00:01;1.98;;;1.10;;
26474;SDS011;14161;52.270;10.334;2024-01-15T11:02:31;5.22;;;1.08;;
26474;SDS011;14161;52.270;10.334;2024-01-15T11:04:58;4.65;;;1.40;;
26474;SDS011;14161;52.270;10.334;2024-01-15T11:07:26;4.97;;;1.10;;
26474;SDS011;14161;52.270;10.334;2024-01-15T11:09:52;4.57;;;1.50;;
26474;SDS011;14161;52.270;10.334;2024-01-15T11:12:17;6.10;;;1.67;;
26474;SDS011;14161;52.270;10.334;2024-01-15T11:14:46;5.82;;;1.48;;
26474;SDS011;14161;52.270;10.334;2024-01-15T11:17:13;5.93;;;1.25;;
26474;SDS011;14161;52.270;10.334;2024-01-15T11:19:46;3.47;;;1.40;;
26474;SDS011;14161;52.270;10.334;2024-01-15T11:24:54;2.65;;;1.13;;
26474;SDS011;14161;52.270;10.334;2024-01-15T11:27:39;7.63;;;1.42;;
26474;SDS011;14161;52.270;10.334;2024-01-15T11:30:07;5.97;;;1.75;;
26474;SDS011;14161;52.270;10.334;2024-01-15T11:32:34;4.88;;;1.42;;
26474;SDS011;14161;52.270;10.334;2024-01-15T11:35:04;8.43;;;1.60;;
26474;SDS011;14161;52.270;10.334;2024-01-15T11:40:19;8.82;;;1.30;;
26474;SDS011;14161;52.270;10.334;2024-01-15T11:42:58;4.13;;;1.27;;
26474;SDS011;14161;52.270;10.334;2024-01-15T11:45:23;5.72;;;1.73;;
26474;SDS011;14161;52.270;10.334;2024-01-15T11:50:43;11.10;;;2.15;;
26474;SDS011;14161;52.270;10.334;2024-01-15T11:53:15;5.53;;;1.58;;
26474;SDS011;14161;52.270;10.334;2024-01-15T11:55:53;6.28;;;1.85;;
26474;SDS011;14161;52.270;10.334;2024-01-15T11:58:23;3.25;;;1.35;;
26474;SDS011;14161;52.270;10.334;2024-01-15T12:00:48;6.18;;;1.38;;
26474;SDS011;14161;52.270;10.334;2024-01-15T12:03:20;6.22;;;1.33;;
26474;SDS011;14161;52.270;10.334;2024-01-15T12:05:49;7.65;;;1.48;;
26474;SDS011;14161;52.270;10.334;2024-01-15T12:08:14;4.20;;;1.58;;
26474;SDS011;14161;52.270;10.334;2024-01-15T12:10:40;4.15;;;1.23;;
26474;SDS011;14161;52.270;10.334;2024-01-15T12:13:10;5.13;;;1.27;;
26474;SDS011;14161;52.270;10.334;2024-01-15T12:15:37;7.40;;;1.10;;
26474;SDS011;14161;52.270;10.334;2024-01-15T12:18:03;4.85;;;1.60;;
26474;SDS011;14161;52.270;10.334;2024-01-15T12:20:29;4.95;;;1.30;;
26474;SDS011;14161;52.270;10.334;2024-01-15T12:22:55;5.68;;;1.45;;
26474;SDS011;14161;52.270;10.334;2024-01-15T12:25:21;2.15;;;0.88;;
26474;SDS011;14161;52.270;10.334;2024-01-15T12:27:48;6.35;;;1.92;;
26474;SDS011;14161;52.270;10.334;2024-01-15T12:30:13;5.35;;;2.10;;
26474;SDS011;14161;52.270;10.334;2024-01-15T12:32:40;4.65;;;1.45;;
26474;SDS011;14161;52.270;10.334;2024-01-15T12:35:07;6.20;;;1.40;;
26474;SDS011;14161;52.270;10.334;2024-01-15T12:37:34;5.75;;;1.40;;
26474;SDS011;14161;52.270;10.334;2024-01-15T12:40:00;7.03;;;1.63;;
26474;SDS011;14161;52.270;10.334;2024-01-15T12:42:27;6.60;;;2.05;;
26474;SDS011;14161;52.270;10.334;2024-01-15T12:44:54;11.45;;;1.88;;
26474;SDS011;14161;52.270;10.334;2024-01-15T12:47:21;4.32;;;1.50;;
26474;SDS011;14161;52.270;10.334;2024-01-15T12:49:47;6.80;;;1.98;;
26474;SDS011;14161;52.270;10.334;2024-01-15T12:52:15;6.00;;;1.83;;
26474;SDS011;14161;52.270;10.334;2024-01-15T12:54:41;5.32;;;1.70;;
26474;SDS011;14161;52.270;10.334;2024-01-15T12:57:06;5.68;;;1.60;;
26474;SDS011;14161;52.270;10.334;2024-01-15T12:59:32;5.13;;;2.13;;
26474;SDS011;14161;52.270;10.334;2024-01-15T13:01:57;8.48;;;1.67;;
26474;SDS011;14161;52.270;10.334;2024-01-15T13:04:23;3.17;;;1.17;;
26474;SDS011;14161;52.270;10.334;2024-01-15T13:06:49;9.27;;;1.63;;
26474;SDS011;14161;52.270;10.334;2024-01-15T13:09:15;7.47;;;1.75;;
26474;SDS011;14161;52.270;10.334;2024-01-15T13:11:40;10.13;;;1.90;;
26474;SDS011;14161;52.270;10.334;2024-01-15T13:14:06;8.52;;;1.98;;
26474;SDS011;14161;52.270;10.334;2024-01-15T13:16:31;8.23;;;1.83;;
26474;SDS011;14161;52.270;10.334;2024-01-15T13:18:57;4.72;;;1.35;;
26474;SDS011;14161;52.270;10.334;2024-01-15T13:21:23;6.07;;;1.00;;
26474;SDS011;14161;52.270;10.334;2024-01-15T13:23:50;5.72;;;1.25;;
26474;SDS011;14161;52.270;10.334;2024-01-15T13:26:15;6.10;;;1.50;;
26474;SDS011;14161;52.270;10.334;2024-01-15T13:28:43;6.38;;;1.35;;
26474;SDS011;14161;52.270;10.334;2024-01-15T13:31:08;8.40;;;1.60;;
26474;SDS011;14161;52.270;10.334;2024-01-15T13:33:34;7.55;;;1.33;;
26474;SDS011;14161;52.270;10.334;2024-01-15T13:35:59;6.15;;;1.40;;
26474;SDS011;14161;52.270;10.334;2024-01-15T13:38:25;4.20;;;1.40;;
26474;SDS011;14161;52.270;10.334;2024-01-15T13:40:51;3.58;;;1.30;;
26474;SDS011;14161;52.270;10.334;2024-01-15T13:43:17;8.40;;;2.00;;
26474;SDS011;14161;52.270;10.334;2024-01-15T13:45:43;6.90;;;1.63;;
26474;SDS011;14161;52.270;10.334;2024-01-15T13:48:09;8.63;;;1.88;;
26474;SDS011;14161;52.270;10.334;2024-01-15T13:50:35;5.65;;;1.60;;
26474;SDS011;14161;52.270;10.334;2024-01-15T13:53:00;5.65;;;1.58;;
26474;SDS011;14161;52.270;10.334;2024-01-15T13:55:27;6.25;;;1.52;;
26474;SDS011;14161;52.270;10.334;2024-01-15T13:57:54;5.95;;;1.80;;
26474;SDS011;14161;52.270;10.334;2024-01-15T14:00:19;8.57;;;1.88;;
26474;SDS011;14161;52.270;10.334;2024-01-15T14:02:45;7.65;;;1.63;;
26474;SDS011;14161;52.270;10.334;2024-01-15T14:05:12;7.72;;;1.27;;
26474;SDS011;14161;52.270;10.334;2024-01-15T14:07:40;6.55;;;1.65;;
26474;SDS011;14161;52.270;10.334;2024-01-15T14:10:09;6.72;;;1.65;;
26474;SDS011;14161;52.270;10.334;2024-01-15T14:12:35;4.75;;;1.50;;
26474;SDS011;14161;52.270;10.334;2024-01-15T14:15:05;4.93;;;1.35;;
26474;SDS011;14161;52.270;10.334;2024-01-15T14:17:31;8.25;;;1.40;;
26474;SDS011;14161;52.270;10.334;2024-01-15T14:19:56;4.00;;;1.17;;
26474;SDS011;14161;52.270;10.334;2024-01-15T14:22:22;4.88;;;1.27;;
26474;SDS011;14161;52.270;10.334;2024-01-15T14:24:48;4.10;;;1.10;;
26474;SDS011;14161;52.270;10.334;2024-01-15T14:27:13;4.38;;;1.02;;
26474;SDS011;14161;52.270;10.334;2024-01-15T14:29:39;8.23;;;2.10;;
26474;SDS011;14161;52.270;10.334;2024-01-15T14:32:04;4.85;;;1.33;;